createdAt,value
2023-02-23T08:08:50.650Z,13.00
2023-02-23T08:10:23.238Z,12.23
2023-02-23T08:11:55.286Z,13.97
2023-02-23T08:13:27.327Z,12.82
2023-02-23T08:15:00.537Z,11.32
2023-02-23T08:16:34.042Z,11.55
2023-02-23T08:19:38.108Z,11.38
2023-02-23T08:21:10.277Z,13.70
2023-02-23T08:22:49.451Z,12.18
2023-02-23T08:24:22.194Z,13.68
2023-02-23T08:25:54.990Z,13.98
2023-02-23T08:27:27.108Z,13.23
2023-02-23T08:28:59.129Z,15.27
2023-02-23T08:30:34.989Z,14.45
2023-02-23T08:32:07.359Z,15.70
2023-02-23T08:33:39.970Z,16.45
2023-02-23T08:35:13.665Z,14.00
2023-02-23T08:36:45.823Z,15.98
2023-02-23T08:38:18.589Z,15.98
2023-02-23T08:39:50.677Z,15.88
2023-02-23T08:41:22.741Z,17.80
2023-02-23T08:42:54.918Z,16.23
2023-02-23T08:44:27.150Z,17.90
2023-02-23T08:45:59.264Z,17.98
2023-02-23T08:47:31.400Z,15.52
2023-02-23T08:49:05.123Z,18.10
2023-02-23T08:50:37.160Z,16.55
2023-02-23T08:52:09.265Z,17.60
2023-02-23T08:53:41.556Z,15.63
2023-02-23T08:55:17.029Z,16.83
2023-02-23T08:56:49.154Z,15.93
2023-02-23T08:58:21.141Z,15.55
2023-02-23T08:59:53.234Z,15.68
2023-02-23T09:01:25.443Z,16.25
2023-02-23T09:02:57.627Z,16.15
2023-02-23T09:04:32.921Z,14.02
2023-02-23T09:06:11.028Z,15.82
2023-02-23T09:07:45.576Z,15.13
2023-02-23T09:09:18.132Z,15.07
2023-02-23T09:10:50.304Z,14.80
2023-02-23T09:12:22.662Z,16.58
2023-02-23T09:13:55.514Z,14.55
2023-02-23T09:15:27.638Z,14.15
2023-02-23T09:16:59.690Z,14.60
2023-02-23T09:18:33.004Z,19.05
2023-02-23T09:20:06.443Z,18.65
2023-02-23T09:23:12.587Z,16.35
2023-02-23T09:24:44.990Z,17.45
2023-02-23T09:26:19.275Z,18.23
2023-02-23T09:27:57.308Z,15.77
2023-02-23T09:29:29.338Z,18.13
2023-02-23T09:31:10.012Z,16.52
2023-02-23T09:32:44.817Z,16.88
2023-02-23T09:34:16.916Z,15.23
2023-02-23T09:35:48.943Z,18.05
2023-02-23T09:37:21.013Z,15.43
2023-02-23T09:38:56.768Z,15.68
2023-02-23T09:40:31.589Z,15.20
2023-02-23T09:42:20.840Z,15.73
2023-02-23T09:44:26.228Z,16.40
2023-02-23T09:46:36.538Z,15.43
2023-02-23T09:48:29.130Z,15.98
2023-02-23T09:50:04.289Z,18.17
2023-02-23T09:51:39.625Z,16.70
2023-02-23T09:53:41.654Z,20.67
2023-02-23T09:55:14.975Z,15.43
2023-02-23T09:56:48.920Z,17.17
2023-02-23T09:58:28.876Z,16.88
2023-02-23T10:00:01.461Z,17.98
2023-02-23T10:01:48.401Z,15.95
2023-02-23T10:03:41.870Z,17.10
2023-02-23T10:05:16.359Z,16.80
2023-02-23T10:07:15.172Z,16.05
2023-02-23T10:09:01.873Z,16.00
2023-02-23T10:10:45.238Z,17.60
2023-02-23T10:12:37.678Z,17.42
2023-02-23T10:14:35.475Z,18.83
2023-02-23T10:16:10.823Z,17.25
2023-02-23T10:17:48.700Z,19.13
2023-02-23T10:19:32.681Z,17.15
2023-02-23T10:22:37.306Z,21.33
2023-02-23T10:24:31.452Z,18.15
2023-02-23T10:26:04.498Z,18.35
2023-02-23T10:27:42.322Z,18.42
2023-02-23T10:29:23.030Z,20.98
2023-02-23T10:30:58.351Z,17.90
2023-02-23T10:32:41.227Z,20.45
2023-02-23T10:34:18.422Z,18.63
2023-02-23T10:36:03.829Z,17.70
2023-02-23T10:37:46.464Z,18.25
2023-02-23T10:40:55.336Z,18.67
2023-02-23T10:42:32.334Z,18.17
2023-02-23T10:44:16.258Z,19.80
2023-02-23T10:45:53.590Z,18.95
2023-02-23T10:47:32.190Z,18.88
2023-02-23T10:49:04.811Z,21.83
2023-02-23T10:50:38.039Z,19.77
2023-02-23T10:52:15.774Z,18.92
2023-02-23T10:53:48.153Z,21.13
2023-02-23T10:55:24.471Z,19.88
2023-02-23T10:56:56.645Z,18.42
2023-02-23T10:58:29.076Z,21.23
2023-02-23T11:00:12.567Z,18.38
2023-02-23T11:02:00.989Z,21.20
2023-02-23T11:03:40.550Z,19.13
2023-02-23T11:05:35.623Z,22.10
2023-02-23T11:07:19.862Z,19.25
2023-02-23T11:08:52.006Z,19.92
2023-02-23T11:10:28.569Z,22.65
2023-02-23T11:12:07.704Z,20.92
2023-02-23T11:13:42.805Z,21.20
2023-02-23T11:17:43.286Z,21.58
2023-02-23T11:19:30.760Z,20.48
2023-02-23T11:21:03.176Z,18.35
2023-02-23T11:22:36.962Z,19.25
2023-02-23T11:24:27.893Z,19.23
2023-02-23T11:26:07.411Z,19.48
2023-02-23T11:27:40.036Z,21.48
2023-02-23T11:29:20.190Z,19.83
2023-02-23T11:30:52.628Z,20.13
2023-02-23T11:32:30.939Z,19.13
2023-02-23T11:34:05.296Z,19.88
2023-02-23T11:35:38.261Z,18.80
2023-02-23T11:37:23.658Z,16.92
2023-02-23T11:39:10.195Z,20.90
2023-02-23T11:40:42.254Z,20.55
2023-02-23T11:42:20.527Z,17.30
2023-02-23T11:43:57.817Z,19.00
2023-02-23T11:45:34.029Z,18.08
2023-02-23T11:47:06.150Z,17.55
2023-02-23T11:48:48.606Z,20.95
2023-02-23T11:50:31.031Z,17.98
2023-02-23T11:52:03.611Z,17.00
2023-02-23T11:53:40.532Z,18.95
2023-02-23T11:55:17.334Z,16.30
2023-02-23T11:56:55.568Z,16.75
2023-02-23T11:58:49.805Z,17.38
2023-02-23T12:00:26.075Z,20.55
2023-02-23T12:02:07.122Z,16.75
2023-02-23T12:03:45.970Z,16.05
2023-02-23T12:05:22.789Z,17.50
2023-02-23T12:07:17.111Z,23.67
2023-02-23T12:08:55.028Z,16.83
2023-02-23T12:10:33.821Z,17.45
2023-02-23T12:12:15.918Z,16.15
2023-02-23T12:13:56.398Z,21.23
2023-02-23T12:16:03.934Z,17.25
2023-02-23T12:17:49.770Z,17.90
2023-02-23T12:19:30.194Z,16.20
2023-02-23T12:21:14.678Z,17.80
2023-02-23T12:22:56.170Z,17.23
2023-02-23T12:24:55.205Z,15.98
2023-02-23T12:26:28.823Z,18.20
2023-02-23T12:28:19.695Z,16.70
2023-02-23T12:30:09.843Z,17.48
2023-02-23T12:32:03.291Z,16.00
2023-02-23T12:33:40.137Z,16.23
2023-02-23T12:35:27.900Z,14.50
2023-02-23T12:37:16.230Z,16.17
2023-02-23T12:39:36.368Z,14.80
2023-02-23T12:41:14.071Z,16.88
2023-02-23T12:42:54.757Z,15.40
2023-02-23T12:44:47.187Z,19.15
2023-02-23T12:46:27.745Z,16.08
2023-02-23T12:48:20.419Z,16.92
2023-02-23T12:50:13.580Z,15.65
2023-02-23T12:51:54.820Z,15.05
2023-02-23T12:53:31.485Z,14.40
2023-02-23T12:55:04.396Z,16.65
2023-02-23T12:56:47.502Z,16.02
2023-02-23T12:58:42.911Z,14.38
2023-02-23T13:00:33.577Z,15.00
2023-02-23T13:02:17.861Z,13.95
2023-02-23T13:04:01.485Z,14.30
2023-02-23T13:05:34.922Z,14.43
2023-02-23T13:08:59.561Z,16.88
2023-02-23T13:10:40.440Z,17.98
2023-02-23T13:12:37.060Z,17.73
2023-02-23T13:14:33.362Z,12.95
2023-02-23T13:16:25.620Z,13.55
2023-02-23T13:18:06.716Z,13.38
2023-02-23T13:19:56.280Z,13.55
2023-02-23T13:21:36.207Z,12.32
2023-02-23T13:23:28.529Z,15.70
2023-02-23T13:25:05.136Z,14.23
2023-02-23T13:26:44.754Z,16.02
2023-02-23T13:28:28.652Z,14.77
2023-02-23T13:31:36.387Z,14.18
2023-02-23T13:33:17.901Z,13.38
2023-02-23T13:34:58.563Z,19.85
2023-02-23T13:36:31.937Z,14.95
2023-02-23T13:39:56.990Z,15.73
2023-02-23T13:41:40.296Z,14.63
2023-02-23T13:43:24.036Z,14.65
2023-02-23T13:45:06.807Z,16.05
2023-02-23T13:47:04.670Z,16.85
2023-02-23T13:49:01.758Z,17.95
2023-02-23T13:50:41.831Z,17.27
2023-02-23T13:52:33.754Z,14.60
2023-02-23T13:54:08.039Z,18.58
2023-02-23T13:55:51.989Z,17.77
2023-02-23T13:59:00.995Z,16.38
2023-02-23T14:00:34.601Z,19.10
2023-02-23T14:02:24.280Z,15.68
2023-02-23T14:03:58.497Z,14.85
2023-02-23T14:05:30.649Z,17.75
2023-02-23T14:07:25.708Z,17.95
2023-02-23T14:09:20.985Z,16.10
2023-02-23T14:10:54.781Z,19.08
2023-02-23T14:12:42.471Z,16.23
2023-02-23T14:14:36.402Z,23.65
2023-02-23T14:16:19.749Z,15.77
2023-02-23T14:18:02.772Z,15.77
2023-02-23T14:19:40.292Z,17.73
2023-02-23T14:21:35.345Z,17.17
2023-02-23T14:23:28.952Z,16.00
2023-02-23T14:25:34.837Z,15.95
2023-02-23T14:27:41.546Z,23.80
2023-02-23T14:29:19.520Z,22.10
2023-02-23T14:31:07.113Z,17.63
2023-02-23T14:32:45.937Z,21.50
2023-02-23T14:34:23.203Z,15.32
2023-02-23T14:35:55.297Z,15.85
2023-02-23T14:37:36.993Z,25.77
2023-02-23T14:39:23.393Z,14.90
2023-02-23T14:40:58.900Z,26.90
2023-02-23T14:42:30.899Z,21.65
2023-02-23T14:44:28.355Z,18.95
2023-02-23T14:46:02.441Z,14.15
2023-02-23T14:47:46.253Z,16.70
2023-02-23T14:49:21.728Z,15.00
2023-02-23T14:51:16.516Z,14.10
2023-02-23T14:52:49.101Z,14.90
2023-02-23T14:56:00.797Z,15.55
2023-02-23T14:57:36.680Z,15.20
2023-02-23T14:59:09.062Z,14.23
2023-02-23T15:00:42.944Z,13.90
2023-02-23T15:02:22.256Z,18.98
2023-02-23T15:04:11.685Z,19.65
2023-02-23T15:05:57.797Z,20.23
2023-02-23T15:07:37.770Z,26.13
2023-02-23T15:09:19.443Z,27.58
2023-02-23T15:11:01.032Z,16.45
2023-02-23T15:12:38.241Z,19.33
2023-02-23T15:14:27.007Z,24.48
2023-02-23T15:16:04.511Z,19.13
2023-02-23T15:17:38.886Z,18.58
2023-02-23T15:19:18.431Z,15.93
2023-02-23T15:20:50.916Z,15.05
2023-02-23T15:22:26.506Z,14.43
2023-02-23T15:24:04.924Z,17.80
2023-02-23T15:25:40.783Z,16.15
2023-02-23T15:27:22.977Z,17.67
2023-02-23T15:28:57.283Z,21.65
2023-02-23T15:30:33.342Z,19.13
2023-02-23T15:32:20.211Z,21.02
2023-02-23T15:33:52.397Z,14.50
2023-02-23T15:35:24.538Z,15.85
2023-02-23T15:36:59.647Z,15.02
2023-02-23T15:38:43.537Z,15.27
2023-02-23T15:40:19.585Z,16.60
2023-02-23T15:41:51.619Z,18.70
2023-02-23T15:43:24.275Z,19.40
2023-02-23T15:45:01.307Z,22.33
2023-02-23T15:46:34.496Z,18.35
2023-02-23T15:48:09.681Z,23.63
2023-02-23T15:49:42.528Z,24.73
2023-02-23T15:51:38.594Z,22.65
2023-02-23T15:54:55.276Z,21.40
2023-02-23T15:58:02.524Z,26.00
2023-02-23T15:59:36.636Z,21.50
2023-02-23T16:01:12.171Z,20.58
2023-02-23T16:02:44.991Z,26.65
2023-02-23T16:04:19.588Z,40.03
2023-02-23T16:06:29.109Z,35.90
2023-02-23T16:08:23.136Z,31.95
2023-02-23T16:10:03.239Z,23.55
2023-02-23T16:11:36.520Z,24.02
2023-02-23T16:13:10.022Z,18.00
2023-02-23T16:16:29.799Z,16.30
2023-02-23T16:18:04.777Z,17.98
2023-02-23T16:19:41.337Z,17.90
2023-02-23T16:21:23.522Z,18.23
2023-02-23T16:22:56.429Z,16.92
2023-02-23T16:24:29.322Z,15.65
2023-02-23T16:26:13.296Z,16.98
2023-02-23T16:29:25.677Z,17.08
2023-02-23T16:30:59.607Z,21.55
2023-02-23T16:32:37.417Z,21.35
2023-02-23T16:34:27.873Z,21.20
2023-02-23T16:36:14.206Z,18.17
2023-02-23T16:38:02.372Z,17.15
2023-02-23T16:39:34.703Z,17.33
2023-02-23T16:41:21.697Z,17.05
2023-02-23T16:42:54.916Z,25.25
2023-02-23T16:44:41.404Z,19.50
2023-02-23T16:46:16.384Z,16.42
2023-02-23T16:47:48.829Z,19.55
2023-02-23T16:49:23.685Z,19.17
2023-02-23T16:50:55.795Z,21.55
2023-02-23T16:52:30.899Z,23.95
2023-02-23T16:54:05.740Z,21.02
2023-02-23T16:55:40.824Z,29.25
2023-02-23T16:57:25.678Z,22.00
2023-02-23T16:59:00.900Z,25.90
2023-02-23T17:00:33.958Z,22.88
2023-02-23T17:02:10.364Z,20.30
2023-02-23T17:03:52.801Z,17.30
2023-02-23T17:05:25.405Z,17.25
2023-02-23T17:06:58.121Z,17.75
2023-02-23T17:08:30.453Z,14.93
2023-02-23T17:10:02.536Z,15.07
2023-02-23T17:11:34.609Z,17.77
2023-02-23T17:13:09.013Z,16.50
2023-02-23T17:14:41.129Z,14.48
2023-02-23T17:16:14.229Z,15.85
2023-02-23T17:17:46.245Z,14.82
2023-02-23T17:19:20.090Z,17.88
2023-02-23T17:20:52.827Z,17.17
2023-02-23T17:22:24.875Z,18.48
2023-02-23T17:24:02.967Z,17.92
2023-02-23T17:25:35.478Z,16.45
2023-02-23T17:27:07.576Z,15.80
2023-02-23T17:28:40.162Z,16.40
2023-02-23T17:30:12.784Z,14.68
2023-02-23T17:31:45.942Z,16.50
2023-02-23T17:33:18.503Z,18.23
2023-02-23T17:34:52.581Z,16.05
2023-02-23T17:36:27.776Z,15.77
2023-02-23T17:38:01.599Z,13.10
2023-02-23T17:39:33.658Z,13.25
2023-02-23T17:41:11.293Z,13.77
2023-02-23T17:42:43.697Z,13.30
2023-02-23T17:44:15.869Z,11.90
2023-02-23T17:45:48.589Z,13.45
2023-02-23T17:47:20.614Z,11.68
2023-02-23T17:48:55.106Z,14.57
2023-02-23T17:50:28.497Z,13.18
2023-02-23T17:53:33.746Z,12.23
2023-02-23T17:55:06.299Z,14.65
2023-02-23T17:56:38.389Z,12.63
2023-02-23T17:58:10.425Z,13.80
2023-02-23T17:59:42.482Z,13.68
2023-02-23T18:01:14.721Z,15.18
2023-02-23T18:02:47.329Z,13.82
2023-02-23T18:04:19.440Z,13.63
2023-02-23T18:05:53.063Z,14.85
2023-02-23T18:07:25.304Z,18.23
2023-02-23T18:08:57.464Z,16.10
2023-02-23T18:10:31.740Z,13.80
2023-02-23T18:12:04.164Z,14.77
2023-02-23T18:13:36.647Z,12.10
2023-02-23T18:15:09.117Z,14.65
2023-02-23T18:16:41.382Z,12.10
2023-02-23T18:18:13.455Z,12.85
2023-02-23T18:19:47.031Z,13.50
2023-02-23T18:21:22.109Z,15.05
2023-02-23T18:22:54.165Z,15.05
2023-02-23T18:24:27.613Z,14.93
2023-02-23T18:27:41.588Z,14.48
2023-02-23T18:29:13.589Z,13.60
2023-02-23T18:30:45.842Z,14.57
2023-02-23T18:32:18.041Z,15.02
2023-02-23T18:33:53.184Z,13.02
2023-02-23T18:35:25.273Z,13.15
2023-02-23T18:36:58.984Z,13.32
2023-02-23T18:38:31.283Z,15.95
2023-02-23T18:40:03.676Z,14.77
2023-02-23T18:41:35.884Z,16.60
2023-02-23T18:43:08.213Z,20.45
2023-02-23T18:44:41.338Z,15.43
2023-02-23T18:46:14.239Z,16.63
2023-02-23T18:47:46.220Z,15.60
2023-02-23T18:49:20.743Z,19.25
2023-02-23T18:50:56.977Z,21.20
2023-02-23T18:52:29.102Z,18.80
2023-02-23T18:54:02.622Z,13.85
2023-02-23T18:57:08.226Z,14.23
2023-02-23T18:58:44.946Z,16.52
2023-02-23T19:00:18.405Z,14.55
2023-02-23T19:03:22.384Z,12.98
2023-02-23T19:04:54.637Z,13.43
2023-02-23T19:06:26.919Z,12.52
2023-02-23T19:07:58.955Z,11.23
2023-02-23T19:09:31.003Z,13.48
2023-02-23T19:11:03.363Z,12.45
2023-02-23T19:12:36.402Z,11.88
2023-02-23T19:14:16.332Z,14.52
2023-02-23T19:15:50.107Z,11.45
2023-02-23T19:17:23.974Z,11.40
2023-02-23T19:18:56.118Z,11.88
2023-02-23T19:20:32.962Z,16.05
2023-02-23T19:22:04.921Z,16.85
2023-02-23T19:23:37.893Z,14.30
2023-02-23T19:25:11.971Z,16.00
2023-02-23T19:26:44.866Z,20.35
2023-02-23T19:28:21.510Z,24.50
2023-02-23T19:29:53.688Z,25.50
2023-02-23T19:31:26.455Z,26.88
2023-02-23T19:33:01.176Z,20.85
2023-02-23T19:34:33.385Z,22.25
2023-02-23T19:36:06.880Z,21.60
2023-02-23T19:39:16.163Z,21.15
2023-02-23T19:40:48.380Z,21.92
2023-02-23T19:42:20.806Z,26.52
2023-02-23T19:43:52.815Z,22.63
2023-02-23T19:45:26.203Z,21.10
2023-02-23T19:48:30.392Z,20.17
2023-02-23T19:50:02.396Z,23.75
2023-02-23T19:51:34.519Z,19.00
2023-02-23T19:53:06.725Z,22.65
2023-02-23T19:54:39.018Z,20.30
2023-02-23T19:56:13.409Z,22.92
2023-02-23T19:57:45.584Z,20.83
2023-02-23T19:59:17.576Z,19.83
2023-02-23T20:00:50.001Z,19.63
2023-02-23T20:02:22.145Z,20.58
2023-02-23T20:04:02.208Z,20.20
2023-02-23T20:05:42.662Z,22.75
2023-02-23T20:07:15.100Z,17.38
2023-02-23T20:08:48.576Z,16.67
2023-02-23T20:11:58.298Z,14.32
2023-02-23T20:13:30.436Z,14.60
2023-02-23T20:15:03.242Z,17.20
2023-02-23T20:16:36.099Z,13.45
2023-02-23T20:18:08.668Z,12.10
2023-02-23T20:19:40.734Z,12.80
2023-02-23T20:21:17.845Z,13.13
2023-02-23T20:22:52.826Z,10.13
2023-02-23T20:24:27.983Z,13.55
2023-02-23T20:26:00.001Z,11.98
2023-02-23T20:27:33.261Z,12.07
2023-02-23T20:29:11.229Z,11.13
2023-02-23T20:30:49.380Z,15.52
2023-02-23T20:32:21.638Z,10.95
2023-02-23T20:33:54.697Z,12.85
2023-02-23T20:35:28.127Z,12.68
2023-02-23T20:38:32.587Z,12.73
2023-02-23T20:40:10.478Z,15.25
2023-02-23T20:41:44.417Z,11.93
2023-02-23T20:43:17.025Z,13.15
2023-02-23T20:44:49.297Z,12.18
2023-02-23T20:46:21.531Z,13.88
2023-02-23T20:47:53.953Z,13.18
2023-02-23T20:49:27.682Z,12.73
2023-02-23T20:51:00.020Z,11.68
2023-02-23T20:52:32.280Z,13.60
2023-02-23T20:54:04.660Z,12.52
2023-02-23T20:55:36.737Z,10.73
2023-02-23T20:57:09.442Z,10.40
2023-02-23T20:58:41.476Z,12.65
2023-02-23T21:00:15.006Z,11.48
2023-02-23T21:03:19.518Z,14.68
2023-02-23T21:04:51.581Z,12.63
2023-02-23T21:06:25.069Z,18.17
2023-02-23T21:09:33.540Z,13.63
2023-02-23T21:11:07.206Z,10.13
2023-02-23T21:12:39.335Z,10.40
2023-02-23T21:14:11.464Z,13.25
2023-02-23T21:15:45.165Z,12.93
2023-02-23T21:17:17.215Z,10.38
2023-02-23T21:18:54.164Z,12.88
2023-02-23T21:20:27.862Z,11.05
2023-02-23T21:22:00.934Z,12.20
2023-02-23T21:25:12.385Z,12.20
2023-02-23T21:26:44.830Z,11.88
2023-02-23T21:28:16.980Z,13.45
2023-02-23T21:29:49.416Z,11.13
2023-02-23T21:31:21.706Z,12.60
2023-02-23T21:32:54.648Z,11.73
2023-02-23T21:34:26.848Z,11.75
2023-02-23T21:35:59.301Z,12.13
2023-02-23T21:37:31.342Z,13.40
2023-02-23T21:39:04.980Z,10.80
2023-02-23T21:40:42.530Z,10.75
2023-02-23T21:42:14.587Z,12.50
2023-02-23T21:43:46.956Z,11.32
2023-02-23T21:45:19.364Z,12.65
2023-02-23T21:46:52.190Z,13.90
2023-02-23T21:48:25.976Z,10.68
2023-02-23T21:49:58.488Z,14.30
2023-02-23T21:51:31.389Z,12.65
2023-02-23T21:53:03.486Z,13.68
2023-02-23T21:54:36.946Z,14.68
